Time;durP1;ratioP1;P1;durP2;ratioP2;P2;SDS_P1;SDS_P2;PMS_P1;PMS_P2;Temp;Humidity;BMP_temperature;BMP_pressure;BME280_temperature;BME280_humidity;BME280_pressure;Samples;Min_cycle;Max_cycle;Signal;HPM_P1;HPM_P2
2022/06/04 00:00:47;;;;;;;0.80;0.60;;;22.50;81.70;;;;;;5115899;28;20028;-55
2022/06/04 00:03:13;;;;;;;1.83;0.60;;;;;;;;;;5115518;28;20494;-56
2022/06/04 00:05:45;;;;;;;2.35;0.80;;;22.50;81.80;;;;;;5115689;28;20035;-55
2022/06/04 00:08:11;;;;;;;1.08;0.60;;;22.30;79.60;;;;;;5115729;28;20090;-56
2022/06/04 00:16:11;;;;;;;0.60;0.60;;;22.40;81.60;;;;;;5115641;28;20026;-56
2022/06/04 00:18:38;;;;;;;0.77;0.68;;;22.50;81.60;;;;;;5115312;28;20106;-55
2022/06/04 00:21:04;;;;;;;1.13;0.65;;;;;;;;;;5115359;28;20028;-53
2022/06/04 00:23:30;;;;;;;1.13;0.60;;;;;;;;;;5115300;28;20024;-56
2022/06/04 00:25:58;;;;;;;0.80;0.50;;;22.40;81.60;;;;;;5115322;28;20038;-54
2022/06/04 00:28:26;;;;;;;0.85;0.80;;;22.40;81.50;;;;;;5115083;28;20020;-56
2022/06/04 00:30:53;;;;;;;0.82;0.70;;;22.40;81.60;;;;;;5115255;28;20058;-56
2022/06/04 00:33:19;;;;;;;0.60;0.60;;;;;;;;;;5096552;28;20405;-55
2022/06/04 00:35:48;;;;;;;0.57;0.57;;;22.40;81.70;;;;;;5115100;28;20082;-55
2022/06/04 00:38:16;;;;;;;0.80;0.75;;;22.40;81.50;;;;;;5115404;28;20023;-56
2022/06/04 00:41:12;;;;;;;1.63;0.63;;;22.40;75.90;;;;;;5115059;28;20417;-55
2022/06/04 00:43:58;;;;;;;0.77;0.60;;;22.40;75.70;;;;;;5101207;28;20035;-55
2022/06/04 00:46:42;;;;;;;1.58;0.80;;;22.40;75.80;;;;;;5115217;28;20030;-55
2022/06/04 00:49:20;;;;;;;1.33;0.82;;;22.40;75.80;;;;;;5114880;28;20036;-56
2022/06/04 00:51:50;;;;;;;0.65;0.65;;;22.40;81.70;;;;;;5114805;28;20024;-54
2022/06/04 00:54:17;;;;;;;2.67;0.60;;;;;;;;;;5114862;28;20032;-56
2022/06/04 00:57:13;;;;;;;1.83;0.80;;;22.40;75.80;;;;;;5114685;28;20016;-55
2022/06/04 00:59:39;;;;;;;3.80;0.90;;;;;;;;;;5114834;28;20435;-54
2022/06/04 01:02:32;;;;;;;1.30;0.50;;;22.40;75.90;;;;;;5114372;28;20043;-55
2022/06/04 01:05:17;;;;;;;0.90;0.73;;;22.40;75.90;;;;;;5114631;28;20031;-56
2022/06/04 01:08:04;;;;;;;1.13;0.43;;;22.30;75.90;;;;;;5114485;28;20027;-56
2022/06/04 01:10:31;;;;;;;0.95;0.70;;;;;;;;;;5114700;28;20394;-56
2022/06/04 01:13:25;;;;;;;0.57;0.57;;;22.40;76.00;;;;;;5114376;28;20054;-56
2022/06/04 01:16:02;;;;;;;0.68;0.68;;;22.40;82.30;;;;;;5114230;28;20043;-56
2022/06/04 01:18:38;;;;;;;0.60;0.60;;;22.30;76.10;;;;;;5114604;28;20023;-53
2022/06/04 01:21:20;;;;;;;1.45;0.82;;;22.40;76.00;;;;;;5114282;28;20027;-55
2022/06/04 01:24:10;;;;;;;1.05;0.60;;;22.40;76.00;;;;;;5114408;28;20110;-54
2022/06/04 01:26:57;;;;;;;1.05;0.68;;;22.30;75.90;;;;;;5114184;28;20102;-55
2022/06/04 01:29:33;;;;;;;0.90;0.68;;;22.30;81.60;;;;;;5114369;28;20035;-54
2022/06/04 01:31:59;;;;;;;0.90;0.60;;;;;;;;;;5114128;28;20024;-55
2022/06/04 01:34:33;;;;;;;0.55;0.55;;;22.40;81.70;;;;;;5114092;28;20035;-52
2022/06/04 01:37:04;;;;;;;0.70;0.70;;;22.30;81.50;;;;;;5113968;28;20413;-55
2022/06/04 01:42:21;;;;;;;2.38;0.47;;;22.30;80.90;;;;;;5114217;28;20051;-54
2022/06/04 01:44:51;;;;;;;2.05;0.70;;;22.30;81.40;;;;;;5113019;28;20517;-55
2022/06/04 01:47:18;;;;;;;1.73;0.85;;;22.10;78.60;;;;;;5114106;28;20023;-53
2022/06/04 01:49:48;;;;;;;0.85;0.68;;;22.30;81.30;;;;;;5113933;28;20051;-55
2022/06/04 01:52:19;;;;;;;0.60;0.50;;;22.40;81.30;;;;;;5113585;28;20458;-54
2022/06/04 01:54:49;;;;;;;2.15;0.52;;;22.20;81.30;;;;;;5113588;28;20474;-54
2022/06/04 01:57:32;;;;;;;2.30;0.88;;;22.30;75.40;;;;;;5113620;28;20055;-54
2022/06/04 02:00:23;;;;;;;0.55;0.55;;;22.30;81.30;;;;;;5113507;28;20020;-53
2022/06/04 02:02:58;;;;;;;1.00;0.55;;;22.30;81.40;;;;;;5111717;28;20047;-54
2022/06/04 02:05:30;;;;;;;1.05;0.63;;;22.90;81.40;;;;;;5113462;28;20240;-55
2022/06/04 02:07:59;;;;;;;2.38;0.60;;;22.10;81.20;;;;;;5113410;28;20569;-54
2022/06/04 02:10:31;;;;;;;1.38;0.70;;;22.30;81.40;;;;;;5113273;28;20031;-56
2022/06/04 02:13:01;;;;;;;1.38;0.60;;;22.20;81.40;;;;;;5113257;28;20053;-54
2022/06/04 02:15:40;;;;;;;0.60;0.60;;;22.30;75.70;;;;;;5113553;28;20016;-55
2022/06/04 02:18:08;;;;;;;1.52;0.60;;;22.30;78.00;;;;;;5113172;28;20084;-56
2022/06/04 02:20:34;;;;;;;2.33;0.98;;;;;;;;;;5113153;28;20471;-55
2022/06/04 02:23:00;;;;;;;1.50;0.80;;;;;;;;;;5113042;28;20038;-53
2022/06/04 02:25:29;;;;;;;1.23;0.93;;;22.30;81.10;;;;;;5094806;28;20034;-54
2022/06/04 02:27:55;;;;;;;1.13;0.60;;;;;;;;;;5112857;28;20486;-55
2022/06/04 02:30:21;;;;;;;4.20;0.88;;;;;;;;;;5112593;28;20051;-53
2022/06/04 02:32:59;;;;;;;1.13;0.60;;;22.20;75.60;;;;;;5112740;28;20024;-55
2022/06/04 02:35:36;;;;;;;1.73;0.70;;;22.40;75.70;;;;;;5112709;28;20481;-55
2022/06/04 02:38:05;;;;;;;2.42;0.70;;;22.20;75.60;;;;;;5112821;28;20382;-52
2022/06/04 02:40:43;;;;;;;0.95;0.77;;;22.20;75.50;;;;;;5113106;28;20027;-54
2022/06/04 02:43:26;;;;;;;2.42;0.82;;;22.20;75.60;;;;;;5112889;28;20058;-55
2022/06/04 02:45:52;;;;;;;1.35;0.80;;;;;;;;;;5112956;28;20027;-55
2022/06/04 02:48:34;;;;;;;1.20;0.80;;;22.20;76.00;;;;;;5112667;28;20035;-55
2022/06/04 02:51:09;;;;;;;2.95;0.70;;;22.20;76.00;;;;;;5112763;28;20053;-55
2022/06/04 02:53:36;;;;;;;1.85;0.82;;;22.20;79.60;;;;;;5112783;28;20084;-55
2022/06/04 02:56:16;;;;;;;3.20;0.93;;;22.20;81.60;;;;;;5112573;28;20028;-55
2022/06/04 02:58:42;;;;;;;;;;;22.20;82.00;;;;;;5113137;28;20051;-55
2022/06/04 03:01:10;;;;;;;1.55;0.70;;;22.20;81.70;;;;;;5112614;28;19903;-54
2022/06/04 03:03:37;;;;;;;1.90;1.00;;;21.90;81.50;;;;;;5112480;28;20195;-55
2022/06/04 03:06:06;;;;;;;1.08;0.80;;;22.30;81.80;;;;;;5112527;28;20098;-55
2022/06/04 03:08:34;;;;;;;1.25;1.00;;;22.20;81.90;;;;;;5112467;28;20039;-55
2022/06/04 03:11:00;;;;;;;2.15;0.80;;;;;;;;;;5112806;28;20062;-52
2022/06/04 03:13:26;;;;;;;2.95;0.90;;;;;;;;;;5112401;28;20055;-55
2022/06/04 03:15:52;;;;;;;7.43;0.93;;;;;;;;;;5112446;28;20486;-54
2022/06/04 03:18:19;;;;;;;1.23;0.70;;;;;;;;;;5112385;28;20055;-54
2022/06/04 03:20:45;;;;;;;2.25;0.90;;;;;;;;;;5112572;28;20028;-53
2022/06/04 03:23:11;;;;;;;3.00;1.00;;;;;;;;;;5112360;28;20481;-55
2022/06/04 03:25:38;;;;;;;0.75;0.75;;;22.10;82.10;;;;;;5112363;28;20034;-55
2022/06/04 03:28:05;;;;;;;1.38;0.80;;;;;;;;;;5112669;28;20095;-54
2022/06/04 03:30:31;;;;;;;4.00;0.90;;;;;;;;;;5112202;28;20092;-56
2022/06/04 03:32:57;;;;;;;1.65;0.70;;;;;;;;;;5112332;28;20024;-56
2022/06/04 03:35:23;;;;;;;1.27;0.77;;;;;;;;;;5112279;28;20531;-54
2022/06/04 03:37:49;;;;;;;1.65;0.85;;;;;;;;;;5112353;28;20035;-55
2022/06/04 03:40:15;;;;;;;1.25;0.70;;;;;;;;;;5112261;28;20035;-55
2022/06/04 03:42:41;;;;;;;1.27;0.93;;;;;;;;;;5112216;28;20059;-55
2022/06/04 03:45:09;;;;;;;1.67;0.90;;;22.00;82.00;;;;;;5112256;28;20024;-55
2022/06/04 03:47:38;;;;;;;1.15;0.82;;;;;;;;;;5112024;28;20028;-52
2022/06/04 03:50:12;;;;;;;2.20;0.63;;;22.10;75.90;;;;;;5112149;28;20039;-56
2022/06/04 03:52:38;;;;;;;1.40;0.70;;;;;;;;;;5112361;28;20677;-56
2022/06/04 03:55:05;;;;;;;1.40;0.80;;;22.00;82.00;;;;;;5112081;28;20068;-54
2022/06/04 03:57:45;;;;;;;1.83;0.73;;;22.10;82.10;;;;;;5112091;28;20011;-55
2022/06/04 04:00:20;;;;;;;1.00;0.80;;;22.10;76.30;;;;;;5112159;28;20099;-55
2022/06/04 04:02:53;;;;;;;1.17;0.70;;;22.10;81.90;;;;;;5111761;28;20044;-54
2022/06/04 04:05:25;;;;;;;0.70;0.70;;;22.00;82.00;;;;;;5112035;28;20024;-55
2022/06/04 04:07:54;;;;;;;1.73;0.63;;;21.90;79.50;;;;;;5114468;28;20498;-55
2022/06/04 04:10:20;;;;;;;1.50;0.80;;;;;;;;;;5115649;28;20043;-55
2022/06/04 04:12:46;;;;;;;0.80;0.80;;;;;;;;;;5115602;28;20034;-56
2022/06/04 04:15:13;;;;;;;1.15;0.88;;;;;;;;;;5115662;28;20042;-54
2022/06/04 04:17:39;;;;;;;2.58;1.15;;;22.10;78.80;;;;;;5115533;28;20026;-54
2022/06/04 04:20:30;;;;;;;1.05;0.93;;;21.90;82.00;;;;;;5115490;28;20058;-55
2022/06/04 04:22:57;;;;;;;1.52;0.70;;;21.90;79.70;;;;;;5114754;28;20493;-56
2022/06/04 04:25:25;;;;;;;1.67;0.73;;;21.90;81.70;;;;;;5115335;28;20035;-54
2022/06/04 04:27:52;;;;;;;1.35;0.80;;;;;;;;;;5115640;28;20382;-53
2022/06/04 04:30:21;;;;;;;0.73;0.73;;;22.10;82.10;;;;;;5115203;28;20032;-52
2022/06/04 04:32:49;;;;;;;1.30;0.50;;;22.00;82.10;;;;;;5115211;28;20020;-53
2022/06/04 04:35:19;;;;;;;1.55;0.90;;;22.00;82.10;;;;;;5115277;28;20114;-55
2022/06/04 04:37:45;;;;;;;1.43;1.00;;;;;;;;;;5115357;28;20369;-55
2022/06/04 04:40:14;;;;;;;1.55;1.08;;;22.10;80.60;;;;;;5115073;28;20679;-55
2022/06/04 04:42:40;;;;;;;1.10;0.88;;;;;;;;;;5114981;28;20436;-54
2022/06/04 04:45:09;;;;;;;1.33;0.82;;;;;;;;;;5114973;28;20035;-54
2022/06/04 04:47:37;;;;;;;2.17;1.30;;;22.10;82.30;;;;;;5114944;28;20367;-55
2022/06/04 04:50:05;;;;;;;0.70;0.70;;;21.90;82.20;;;;;;5114840;28;20036;-56
2022/06/04 04:52:32;;;;;;;1.73;0.85;;;;;;;;;;5114781;28;20031;-55
2022/06/04 04:54:58;;;;;;;1.00;0.90;;;;;;;;;;5114846;28;20096;-55
2022/06/04 04:57:24;;;;;;;2.33;1.10;;;;;;;;;;5114798;28;20474;-56
2022/06/04 04:59:49;;;;;;;1.02;0.73;;;;;;;;;;5114655;28;20016;-54
2022/06/04 05:02:16;;;;;;;2.03;0.80;;;;;;;;;;5114469;28;20040;-55
2022/06/04 05:04:42;;;;;;;2.03;0.70;;;;;;;;;;5114580;28;20035;-55
2022/06/04 05:07:11;;;;;;;1.27;1.00;;;;;;;;;;5114562;28;20023;-55
2022/06/04 05:09:39;;;;;;;4.07;0.95;;;;;;;;;;5114429;28;20402;-54
2022/06/04 05:12:05;;;;;;;1.38;0.90;;;;;;;;;;5114829;28;20099;-55
2022/06/04 05:14:31;;;;;;;2.25;1.00;;;;;;;;;;5114411;28;20054;-56
2022/06/04 05:16:57;;;;;;;0.98;0.73;;;;;;;;;;5114383;28;20378;-54
2022/06/04 05:19:23;;;;;;;2.38;1.02;;;;;;;;;;5113264;28;20036;-55
2022/06/04 05:21:53;;;;;;;0.80;0.70;;;22.00;81.80;;;;;;5114223;28;20031;-54
2022/06/04 05:24:19;;;;;;;1.77;0.82;;;;;;;;;;5114478;28;20028;-55
2022/06/04 05:26:45;;;;;;;3.38;1.00;;;;;;;;;;5114065;28;20030;-55
2022/06/04 05:29:11;;;;;;;0.75;0.75;;;;;;;;;;5114141;28;20040;-55
2022/06/04 05:31:39;;;;;;;2.28;0.90;;;;;;;;;;5114173;28;20034;-55
2022/06/04 05:34:05;;;;;;;1.30;1.00;;;;;;;;;;5114252;28;20031;-55
2022/06/04 05:36:31;;;;;;;1.98;0.95;;;;;;;;;;5114032;28;20078;-56
2022/06/04 05:38:58;;;;;;;1.08;0.90;;;;;;;;;;5113921;28;20104;-54
2022/06/04 05:41:25;;;;;;;1.58;0.85;;;;;;;;;;5113875;28;20028;-56
2022/06/04 05:43:51;;;;;;;5.50;1.42;;;;;;;;;;5114126;28;20028;-56
2022/06/04 05:46:19;;;;;;;3.25;1.05;;;;;;;;;;5114016;28;20028;-54
2022/06/04 05:48:46;;;;;;;3.50;1.00;;;;;;;;;;5113607;28;20028;-55
2022/06/04 05:51:14;;;;;;;2.90;0.77;;;22.10;82.50;;;;;;5113725;28;20031;-56
2022/06/04 05:53:40;;;;;;;3.58;1.00;;;;;;;;;;5113925;28;20069;-56
2022/06/04 05:56:13;;;;;;;5.22;1.15;;;21.90;76.50;;;;;;5113778;28;20042;-56
2022/06/04 05:58:39;;;;;;;2.15;1.08;;;;;;;;;;5113561;28;20023;-54
2022/06/04 06:01:05;;;;;;;2.90;1.20;;;;;;;;;;5113851;28;20161;-55
2022/06/04 06:03:32;;;;;;;2.70;1.27;;;;;;;;;;5113219;28;20056;-55
2022/06/04 06:05:58;;;;;;;2.80;1.10;;;;;;;;;;5113637;28;20011;-55
2022/06/04 06:08:24;;;;;;;2.17;1.00;;;;;;;;;;5113681;28;20038;-53
2022/06/04 06:10:50;;;;;;;2.78;1.15;;;;;;;;;;5113471;28;20398;-53
2022/06/04 06:13:16;;;;;;;4.07;0.95;;;;;;;;;;5113269;28;20141;-53
2022/06/04 06:15:42;;;;;;;1.42;0.70;;;;;;;;;;5113280;28;20024;-51
2022/06/04 06:18:08;;;;;;;2.25;1.20;;;;;;;;;;5113205;28;20598;-53
2022/06/04 06:20:35;;;;;;;3.20;1.23;;;21.90;82.80;;;;;;5113190;28;20035;-54
2022/06/04 06:23:01;;;;;;;3.35;1.38;;;;;;;;;;5113278;28;20020;-52
2022/06/04 06:25:28;;;;;;;5.53;1.27;;;;;;;;;;5113151;28;20057;-52
2022/06/04 06:27:54;;;;;;;3.47;1.42;;;;;;;;;;5113250;28;20406;-52
2022/06/04 06:30:20;;;;;;;2.05;1.00;;;;;;;;;;5112572;28;20035;-54
2022/06/04 06:32:46;;;;;;;2.88;1.15;;;;;;;;;;5113183;28;20072;-53
2022/06/04 06:35:12;;;;;;;3.33;1.00;;;;;;;;;;5113099;28;20039;-54
2022/06/04 06:37:38;;;;;;;2.05;0.98;;;;;;;;;;5112838;28;20015;-54
2022/06/04 06:40:05;;;;;;;1.50;1.13;;;21.60;82.40;;;;;;5112811;28;20521;-54
2022/06/04 06:42:31;;;;;;;4.22;1.13;;;;;;;;;;5113076;28;20378;-52
2022/06/04 06:44:57;;;;;;;1.17;1.05;;;;;;;;;;5112768;28;20038;-51
2022/06/04 06:47:23;;;;;;;3.55;1.20;;;;;;;;;;5112674;28;20024;-55
2022/06/04 06:49:49;;;;;;;1.05;0.95;;;;;;;;;;5112910;28;20439;-50
2022/06/04 06:52:16;;;;;;;1.52;1.13;;;;;;;;;;5112667;28;20035;-50
2022/06/04 06:54:42;;;;;;;1.55;1.13;;;;;;;;;;5112836;28;20028;-55
2022/06/04 06:57:11;;;;;;;1.25;1.15;;;22.00;82.50;;;;;;5112258;28;20047;-56
2022/06/04 06:59:43;;;;;;;2.55;0.98;;;21.90;82.30;;;;;;5112438;28;20055;-57
2022/06/04 07:02:09;;;;;;;1.83;1.20;;;22.00;79.70;;;;;;5112325;28;20028;-56
2022/06/04 07:04:35;;;;;;;2.40;1.30;;;;;;;;;;5112433;28;20040;-56
2022/06/04 07:07:02;;;;;;;3.55;1.30;;;21.80;81.50;;;;;;5112249;28;20076;-55
2022/06/04 07:09:32;;;;;;;2.83;0.98;;;22.20;84.10;;;;;;5112220;28;20027;-50
2022/06/04 07:11:59;;;;;;;;;;;22.20;84.20;;;;;;5112835;28;20054;-52
2022/06/04 07:14:25;;;;;;;4.03;1.48;;;;;;;;;;5112224;28;19980;-50
2022/06/04 07:16:52;;;;;;;2.33;1.38;;;22.00;82.00;;;;;;5112296;28;20052;-50
2022/06/04 07:19:18;;;;;;;5.18;1.77;;;;;;;;;;5112237;28;20093;-51
2022/06/04 07:21:45;;;;;;;1.95;1.33;;;;;;;;;;5112451;28;20020;-57
2022/06/04 07:24:11;;;;;;;1.42;1.30;;;;;;;;;;5112049;28;20035;-57
2022/06/04 07:26:37;;;;;;;2.03;1.35;;;;;;;;;;5112145;28;20405;-57
2022/06/04 07:29:03;;;;;;;4.53;1.30;;;;;;;;;;5112052;28;20522;-57
2022/06/04 07:31:29;;;;;;;2.35;1.30;;;;;;;;;;5112224;28;20145;-55
2022/06/04 07:33:56;;;;;;;2.92;1.05;;;21.90;80.30;;;;;;5112584;28;20059;-56
2022/06/04 07:36:36;;;;;;;2.05;1.05;;;21.90;77.50;;;;;;5112201;28;20035;-49
2022/06/04 07:39:07;;;;;;;3.20;1.50;;;22.00;82.90;;;;;;5112313;28;20020;-50
2022/06/04 07:41:39;;;;;;;1.33;1.23;;;22.00;76.60;;;;;;5112631;28;20020;-51
2022/06/04 07:44:08;;;;;;;5.07;1.38;;;21.70;76.60;;;;;;5115807;28;20032;-53
2022/06/04 07:46:34;;;;;;;4.43;1.40;;;;;;;;;;5115773;28;20132;-55
2022/06/04 07:49:03;;;;;;;3.58;1.40;;;21.90;82.80;;;;;;5116037;28;20020;-55
2022/06/04 07:51:32;;;;;;;2.22;1.20;;;22.00;82.60;;;;;;5115801;28;20079;-54
2022/06/04 07:53:58;;;;;;;2.65;1.63;;;;;;;;;;5115840;28;20031;-56
2022/06/04 07:56:25;;;;;;;13.43;1.92;;;;;;;;;;5115666;28;20036;-55
2022/06/04 07:58:51;;;;;;;9.45;2.03;;;;;;;;;;5115657;28;20034;-56
2022/06/04 08:01:19;;;;;;;4.20;1.38;;;22.00;83.10;;;;;;5115303;28;20121;-56
2022/06/04 08:03:46;;;;;;;3.05;1.33;;;22.00;80.80;;;;;;5115329;28;20058;-57
2022/06/04 08:06:15;;;;;;;3.50;1.50;;;22.00;82.90;;;;;;5115562;28;20106;-54
2022/06/04 08:08:42;;;;;;;2.80;1.30;;;;;;;;;;5115357;28;20478;-57
2022/06/04 08:13:53;;;;;;;3.30;1.50;;;;;;;;;;5115266;28;20031;-56
2022/06/04 08:16:19;;;;;;;5.22;1.75;;;;;;;;;;5115280;28;20038;-56
2022/06/04 08:18:45;;;;;;;5.22;1.60;;;;;;;;;;5115424;28;20035;-57
2022/06/04 08:21:11;;;;;;;3.80;1.70;;;;;;;;;;5115049;28;20466;-57
2022/06/04 08:23:39;;;;;;;3.47;1.65;;;;;;;;;;5115246;28;20027;-57
2022/06/04 08:26:07;;;;;;;3.92;1.58;;;22.00;81.40;;;;;;5115019;28;20028;-57
2022/06/04 08:28:33;;;;;;;2.83;1.27;;;;;;;;;;5115233;28;20126;-58
2022/06/04 08:31:05;;;;;;;4.95;1.42;;;22.00;75.90;;;;;;5114749;28;20127;-57
2022/06/04 08:33:32;;;;;;;5.15;1.30;;;;;;;;;;5114478;28;20359;-58
2022/06/04 08:35:58;;;;;;;3.05;2.28;;;;;;;;;;5114644;28;20027;-56
2022/06/04 08:38:24;;;;;;;6.10;1.98;;;;;;;;;;5114567;28;20035;-57
2022/06/04 08:40:53;;;;;;;3.83;1.50;;;22.00;81.50;;;;;;5114713;28;20032;-58
2022/06/04 08:43:45;;;;;;;5.37;1.47;;;21.90;64.70;;;;;;5114877;28;20034;-52
2022/06/04 08:46:42;;;;;;;4.10;1.52;;;21.90;58.90;;;;;;5114878;28;20407;-54
2022/06/04 08:49:15;;;;;;;2.05;1.38;;;22.00;58.50;;;;;;5079242;28;20067;-51
2022/06/04 08:51:43;;;;;;;3.30;1.52;;;21.90;64.30;;;;;;5114740;28;20027;-52
2022/06/04 09:00:19;;;;;;;2.08;1.42;;;21.90;64.60;;;;;;5114967;28;20535;-51
2022/06/04 09:03:18;;;;;;;3.20;1.80;;;22.20;58.60;;;;;;5114467;28;20394;-52
2022/06/04 09:06:03;;;;;;;3.50;1.95;;;22.20;58.40;;;;;;5114617;28;20020;-52
2022/06/04 09:08:39;;;;;;;2.65;1.30;;;22.40;58.50;;;;;;5114476;28;20027;-50
2022/06/04 09:11:13;;;;;;;3.03;1.40;;;22.10;64.50;;;;;;5114381;28;20529;-51
2022/06/04 09:14:01;;;;;;;3.50;1.63;;;22.60;58.30;;;;;;5114250;28;20354;-51
2022/06/04 09:16:32;;;;;;;3.00;1.33;;;22.50;64.50;;;;;;5114269;28;20019;-53
2022/06/04 09:19:02;;;;;;;3.85;1.80;;;22.50;64.30;;;;;;5114195;28;20028;-49
2022/06/04 09:21:36;;;;;;;2.38;1.60;;;22.50;64.60;;;;;;5114164;28;20104;-49
2022/06/04 09:24:03;;;;;;;2.45;1.40;;;;;;;;;;5114247;28;20020;-49
2022/06/04 09:26:40;;;;;;;5.95;1.67;;;22.60;63.60;;;;;;5114115;28;20404;-49
2022/06/04 09:29:24;;;;;;;4.45;1.90;;;22.50;57.50;;;;;;5113781;28;20088;-50
2022/06/04 09:32:11;;;;;;;3.65;1.52;;;22.60;57.70;;;;;;5114060;28;20031;-47
2022/06/04 09:34:45;;;;;;;2.10;1.85;;;22.70;57.50;;;;;;5114016;28;20386;-48
2022/06/04 09:37:11;;;;;;;3.25;1.63;;;;;;;;;;5114150;28;20073;-48
2022/06/04 09:39:41;;;;;;;2.78;1.27;;;22.80;63.40;;;;;;5113753;28;20085;-47
2022/06/04 09:42:13;;;;;;;3.00;1.70;;;22.80;57.30;;;;;;5113706;28;20028;-47
2022/06/04 09:45:22;;;;;;;6.10;2.30;;;22.90;57.30;;;;;;5113936;28;20058;-47
2022/06/04 09:47:53;;;;;;;4.68;2.05;;;22.90;63.40;;;;;;5065576;28;20054;-47
2022/06/04 09:50:30;;;;;;;3.20;1.85;;;23.00;57.80;;;;;;5114050;28;20024;-47
2022/06/04 09:53:03;;;;;;;3.30;2.10;;;23.10;63.80;;;;;;5113677;28;20035;-48
2022/06/04 09:55:32;;;;;;;4.22;2.40;;;23.40;63.90;;;;;;5113963;28;20386;-49
2022/06/04 09:58:02;;;;;;;6.90;2.70;;;23.20;63.90;;;;;;5113437;28;20024;-48
2022/06/04 10:00:33;;;;;;;10.85;4.00;;;23.10;64.50;;;;;;5113525;28;20403;-47
2022/06/04 10:03:04;;;;;;;6.40;3.50;;;23.20;64.80;;;;;;5113005;28;20032;-46
2022/06/04 10:05:32;;;;;;;10.77;3.45;;;23.20;64.90;;;;;;5112623;28;20027;-46
2022/06/04 10:07:58;;;;;;;11.20;4.38;;;;;;;;;;5113177;28;20028;-47
2022/06/04 10:10:41;;;;;;;7.85;3.92;;;23.20;58.60;;;;;;5113103;28;20465;-47
2022/06/04 10:16:17;;;;;;;7.60;4.32;;;23.30;58.30;;;;;;5113362;28;20083;-48
2022/06/04 10:19:01;;;;;;;14.70;4.60;;;23.40;58.30;;;;;;5113429;28;20116;-50
2022/06/04 10:21:36;;;;;;;9.95;4.55;;;23.30;58.00;;;;;;5113182;28;20120;-48
2022/06/04 10:24:17;;;;;;;11.07;3.83;;;23.40;63.90;;;;;;5113300;28;20027;-47
2022/06/04 10:27:27;;;;;;;10.60;4.40;;;23.40;57.70;;;;;;5094757;28;20388;-50
2022/06/04 10:30:12;;;;;;;10.02;4.55;;;23.40;58.10;;;;;;5112769;28;20035;-51
2022/06/04 10:32:59;;;;;;;10.70;4.05;;;23.40;57.70;;;;;;5112770;28;20036;-50
2022/06/04 10:36:12;;;;;;;8.32;4.10;;;23.30;57.60;;;;;;5113024;28;20028;-50
2022/06/04 10:38:49;;;;;;;12.00;4.93;;;23.40;57.60;;;;;;5010367;28;20095;-50
2022/06/04 10:41:44;;;;;;;11.43;4.70;;;23.30;57.40;;;;;;5010431;28;20227;-53
2022/06/04 10:44:42;;;;;;;9.70;4.70;;;23.30;57.50;;;;;;5086336;28;20094;-51
2022/06/04 10:47:25;;;;;;;8.73;3.60;;;23.30;63.20;;;;;;5112819;28;20440;-50
2022/06/04 10:49:51;;;;;;;15.75;4.60;;;;;;;;;;5112668;28;20031;-50
2022/06/04 10:52:17;;;;;;;7.57;4.28;;;;;;;;;;5112712;28;20073;-54
2022/06/04 10:55:11;;;;;;;9.35;3.92;;;23.10;57.90;;;;;;5112531;28;20428;-49
2022/06/04 10:57:37;;;;;;;6.95;3.58;;;;;;;;;;5112955;28;20026;-49
2022/06/04 11:00:03;;;;;;;11.43;3.80;;;;;;;;;;5112588;28;20027;-50
2022/06/04 11:02:57;;;;;;;8.52;4.00;;;23.30;57.90;;;;;;5112465;28;20110;-48
2022/06/04 11:05:32;;;;;;;6.55;3.47;;;23.30;64.20;;;;;;5112627;28;20445;-46
2022/06/04 11:08:24;;;;;;;8.90;3.75;;;23.30;58.10;;;;;;5112676;28;20072;-46
2022/06/04 11:11:13;;;;;;;8.38;3.30;;;23.20;58.10;;;;;;5112532;28;20123;-47
2022/06/04 11:13:39;;;;;;;11.55;3.60;;;;;;;;;;5112515;28;20049;-46
2022/06/04 11:16:22;;;;;;;11.63;3.92;;;23.30;58.40;;;;;;5112377;28;20031;-47
2022/06/04 11:19:04;;;;;;;8.60;3.20;;;23.30;58.40;;;;;;5116818;28;20110;-47
2022/06/04 11:21:40;;;;;;;6.75;3.40;;;23.20;58.30;;;;;;5116957;28;20034;-48
2022/06/04 11:24:33;;;;;;;6.70;3.53;;;23.30;58.30;;;;;;5116446;28;20081;-47
2022/06/04 11:27:19;;;;;;;7.05;3.45;;;23.30;58.20;;;;;;5116739;28;20020;-47
2022/06/04 11:29:45;;;;;;;7.45;3.08;;;;;;;;;;5116415;28;20070;-48
2022/06/04 11:32:28;;;;;;;8.05;3.17;;;23.30;58.30;;;;;;5116298;28;20082;-47
2022/06/04 11:35:27;;;;;;;7.47;3.17;;;23.30;58.50;;;;;;5116261;28;20028;-47
2022/06/04 11:37:56;;;;;;;8.10;3.05;;;23.30;58.50;;;;;;5116394;28;20020;-48
2022/06/04 11:40:22;;;;;;;7.63;3.05;;;;;;;;;;5116280;28;20031;-47
2022/06/04 11:42:48;;;;;;;5.80;2.90;;;;;;;;;;5116117;28;20073;-51
2022/06/04 11:45:39;;;;;;;4.20;2.75;;;26.20;60.70;;;;;;5115614;28;20054;-48
2022/06/04 11:48:05;;;;;;;5.30;3.15;;;;;;;;;;5115886;28;20030;-49
2022/06/04 11:50:37;;;;;;;6.22;3.17;;;23.30;58.50;;;;;;5115919;28;20482;-48
2022/06/04 11:53:39;;;;;;;3.25;2.25;;;23.30;58.70;;;;;;5116301;28;20020;-48
2022/06/04 11:56:16;;;;;;;5.57;2.97;;;23.40;64.80;;;;;;5116095;28;20470;-48
2022/06/04 11:59:19;;;;;;;9.23;2.65;;;23.40;58.90;;;;;;5115924;28;20487;-50
2022/06/04 12:01:53;;;;;;;4.45;2.88;;;23.40;64.90;;;;;;5115774;28;20042;-49
2022/06/04 12:04:27;;;;;;;5.65;2.80;;;23.40;59.00;;;;;;5115540;28;20044;-48
2022/06/04 12:07:06;;;;;;;4.25;2.88;;;23.30;58.90;;;;;;5115943;28;20027;-48
2022/06/04 12:09:32;;;;;;;4.38;2.55;;;;;;;;;;5115945;28;20443;-49
2022/06/04 12:11:58;;;;;;;5.25;2.78;;;;;;;;;;5115613;28;20066;-48
2022/06/04 12:14:42;;;;;;;4.10;2.10;;;23.40;64.40;;;;;;5115617;28;20068;-48
2022/06/04 12:17:37;;;;;;;5.72;2.70;;;23.60;58.30;;;;;;5115678;28;20471;-47
2022/06/04 12:26:24;;;;;;;6.97;2.30;;;23.40;58.40;;;;;;5122379;28;19911;-46
2022/06/04 12:28:51;;;;;;;3.63;2.10;;;23.70;61.50;;;;;;5115114;28;20566;-46
2022/06/04 12:31:36;;;;;;;4.50;2.20;;;23.50;58.20;;;;;;5115282;28;20087;-47
2022/06/04 12:34:23;;;;;;;9.38;2.40;;;23.50;64.30;;;;;;5115431;28;20051;-50
2022/06/04 12:36:52;;;;;;;5.05;2.03;;;23.50;64.10;;;;;;5114512;28;20039;-50
2022/06/04 12:39:23;;;;;;;3.30;2.00;;;23.40;58.00;;;;;;5115193;28;20020;-50
2022/06/04 12:41:53;;;;;;;4.35;2.38;;;23.40;64.30;;;;;;5115159;28;20031;-48
2022/06/04 12:44:31;;;;;;;5.43;2.25;;;23.50;64.20;;;;;;5115140;28;20020;-52
2022/06/04 12:47:11;;;;;;;5.53;2.40;;;23.40;64.50;;;;;;5114990;28;20042;-51
2022/06/04 12:49:55;;;;;;;2.65;1.95;;;23.50;58.40;;;;;;5114675;28;20039;-50
2022/06/04 12:52:38;;;;;;;2.13;1.67;;;23.50;58.40;;;;;;5115088;28;20035;-54
2022/06/04 12:55:46;;;;;;;5.05;2.33;;;23.60;58.60;;;;;;5114904;28;20507;-52
2022/06/04 12:58:44;;;;;;;4.38;1.90;;;23.60;58.70;;;;;;5115074;28;20374;-54
2022/06/04 13:01:12;;;;;;;3.00;1.73;;;23.60;58.50;;;;;;5101008;28;20043;-52
2022/06/04 13:03:40;;;;;;;2.40;1.92;;;23.60;64.70;;;;;;5114487;28;20407;-51
2022/06/04 13:06:29;;;;;;;4.00;2.00;;;23.60;58.60;;;;;;5114574;28;20027;-48
2022/06/04 13:09:24;;;;;;;2.90;1.80;;;23.60;58.70;;;;;;5114587;28;20067;-49
2022/06/04 13:11:50;;;;;;;2.55;1.80;;;;;;;;;;5114595;28;20397;-47
2022/06/04 13:14:46;;;;;;;4.38;1.83;;;23.70;58.40;;;;;;5114439;28;20035;-49
2022/06/04 13:17:19;;;;;;;2.97;2.13;;;23.60;58.30;;;;;;5114442;28;20032;-49
2022/06/04 13:19:45;;;;;;;1.83;1.60;;;;;;;;;;5114165;28;20020;-49
2022/06/04 13:22:23;;;;;;;3.00;1.90;;;23.60;64.40;;;;;;5114075;28;20503;-47
2022/06/04 13:24:49;;;;;;;4.60;1.90;;;;;;;;;;5114129;28;20030;-48
2022/06/04 13:27:21;;;;;;;2.80;1.48;;;23.60;64.30;;;;;;5114240;28;20020;-47
2022/06/04 13:29:55;;;;;;;3.85;1.75;;;23.50;64.30;;;;;;5114179;28;20027;-49
2022/06/04 13:32:22;;;;;;;4.13;1.58;;;23.60;63.20;;;;;;5114133;28;20032;-49
2022/06/04 13:34:49;;;;;;;2.75;1.85;;;;;;;;;;5113974;28;20381;-50
2022/06/04 13:37:21;;;;;;;3.00;1.90;;;23.60;64.40;;;;;;5114227;28;20359;-49
2022/06/04 13:39:49;;;;;;;3.13;1.67;;;23.50;64.40;;;;;;5113173;28;20015;-49
2022/06/04 13:42:30;;;;;;;2.22;1.50;;;23.60;58.50;;;;;;5113800;28;20020;-49
2022/06/04 13:45:11;;;;;;;2.30;2.05;;;23.60;58.50;;;;;;5113767;28;20028;-53
2022/06/04 13:48:00;;;;;;;2.95;2.00;;;23.50;64.60;;;;;;5113736;28;20027;-49
2022/06/04 13:50:29;;;;;;;2.00;1.90;;;23.60;64.80;;;;;;5113654;28;20031;-51
2022/06/04 13:53:03;;;;;;;3.63;2.03;;;23.60;58.60;;;;;;5113586;28;20491;-51
2022/06/04 13:55:29;;;;;;;2.13;1.80;;;;;;;;;;5113898;28;20031;-49
2022/06/04 13:57:59;;;;;;;2.47;1.98;;;23.60;64.60;;;;;;5113382;28;20027;-50
2022/06/04 14:00:29;;;;;;;2.33;1.58;;;23.40;64.40;;;;;;5113584;28;20028;-49
2022/06/04 14:02:59;;;;;;;2.03;1.50;;;23.50;64.50;;;;;;5113194;28;20038;-52
2022/06/04 14:05:44;;;;;;;3.70;1.90;;;23.60;58.70;;;;;;5113841;28;20050;-50
2022/06/04 14:08:21;;;;;;;4.68;1.92;;;23.50;61.70;;;;;;5113333;28;20019;-54
2022/06/04 14:11:12;;;;;;;3.92;1.95;;;23.50;59.00;;;;;;5113274;28;20051;-52
2022/06/04 14:13:55;;;;;;;5.38;1.70;;;23.50;58.90;;;;;;5113347;28;20031;-54
2022/06/04 14:16:53;;;;;;;3.03;2.00;;;23.60;59.10;;;;;;5113214;28;20475;-51
2022/06/04 14:19:34;;;;;;;3.25;1.73;;;23.60;59.10;;;;;;5113156;28;20489;-54
2022/06/04 14:22:08;;;;;;;1.92;1.75;;;23.50;59.30;;;;;;5113382;28;20019;-53
2022/06/04 14:24:34;;;;;;;3.42;2.10;;;;;;;;;;5113210;28;20031;-53